Airport View

Enter AWOS ICAO identifier for current METAR.

ex. KFNL

PAHO 080353Z 24011KT 10SM BKN036 15/11 A2999 RMK AO2 SLP156 T01500106

8 Jul 2020 04:07

Frequency: 135.65

Phone: 907-235-3603

Other Area AWOS: PASO - PASX - PAEN - PAWD

TAF PAHO 072322Z 0800/0824 22011KT P6SM VCFG SCT001 TEMPO 0800/0802 1SM BR BKN001 FM080600 VRB03KT P6SM VCFG SCT001 FM081400 24005KT 6SM -RA BKN015 OVC025